Main page
METAR-TAF:

METAR-TAF

Airports :

Alderney,

Alderney Airport

latitude: 49-43N, longitude: 002-12W, elevation: 71 m

Current weather observation

The report was made 26 minutes ago, at 10:50 UTC
Wind 17 kt from the West
Temperature 11°C
Pressure 1003 hPa
Visibility 10 km or more
Few clouds at a height of 2300 ft
Broken clouds at a height of 3500 ft

METAR: EGJA 231050Z 26017KT 9999 FEW023 BKN035 11/// Q1003

Time: 11:16 (11:16 UTC)

Forecast

The report was made 3 hours and 15 minutes ago, at 08:01 UTC
Forecast valid from 23 at 09 UTC to 23 at 18 UTC
Wind 20 kt from the West
Visibility 10 km or more
Few clouds at a height of 1200 ft
Scattered clouds at a height of 2000 ft

TAF: EGJA 230801Z 2309/2318 26020KT 9999 FEW012 SCT020

Weather observations and forecasts of more than 4000 airports (METAR and TAF reports).

The available stations are represented by yellow and red dots on the map.

Hover mouse over dot to see the name of the station.

Then click to see weather observations and forecasts.

To change the map : click on the green buttons with a black cross to zoom in, on the green button with a dash to zoom out, or on the green arrows for adjacent maps.


METAR-TAF: